sensor_id;sensor_type;location;lat;lon;timestamp;pressure;altitude;pressure_sealevel;temperature;humidity
75072;BME280;63651;55.728;38.022;2023-09-12T00:04:53;99924.91;;;18.08;48.96
75072;BME280;63651;55.728;38.022;2023-09-12T00:09:54;99932.94;;;17.98;49.21
75072;BME280;63651;55.728;38.022;2023-09-12T00:14:55;99937.13;;;18.00;49.07
75072;BME280;63651;55.728;38.022;2023-09-12T00:19:56;99940.69;;;18.01;49.14
75072;BME280;63651;55.728;38.022;2023-09-12T00:24:58;99937.94;;;18.01;49.04
75072;BME280;63651;55.728;38.022;2023-09-12T00:29:59;99939.38;;;18.03;49.00
75072;BME280;63651;55.728;38.022;2023-09-12T00:35:00;99940.09;;;17.99;48.90
75072;BME280;63651;55.728;38.022;2023-09-12T00:40:01;99944.78;;;17.98;49.19
75072;BME280;63651;55.728;38.022;2023-09-12T00:45:02;99944.44;;;17.95;49.06
75072;BME280;63651;55.728;38.022;2023-09-12T00:50:05;99936.91;;;17.90;48.77
75072;BME280;63651;55.728;38.022;2023-09-12T00:55:06;99945.84;;;17.97;48.92
75072;BME280;63651;55.728;38.022;2023-09-12T01:00:11;99957.00;;;17.90;49.12
75072;BME280;63651;55.728;38.022;2023-09-12T01:05:14;99952.47;;;17.84;49.06
75072;BME280;63651;55.728;38.022;2023-09-12T01:10:15;99960.31;;;17.92;48.97
75072;BME280;63651;55.728;38.022;2023-09-12T01:15:17;99954.72;;;17.87;49.09
75072;BME280;63651;55.728;38.022;2023-09-12T01:20:27;99945.19;;;17.78;48.92
75072;BME280;63651;55.728;38.022;2023-09-12T01:31:01;99955.06;;;17.91;48.92
75072;BME280;63651;55.728;38.022;2023-09-12T01:36:03;99957.38;;;17.82;48.91
75072;BME280;63651;55.728;38.022;2023-09-12T01:41:05;99956.78;;;17.80;48.97
75072;BME280;63651;55.728;38.022;2023-09-12T01:46:07;99958.19;;;17.83;48.79
75072;BME280;63651;55.728;38.022;2023-09-12T01:51:09;99964.19;;;17.80;48.96
75072;BME280;63651;55.728;38.022;2023-09-12T01:56:11;99964.53;;;17.83;48.48
75072;BME280;63651;55.728;38.022;2023-09-12T02:01:14;99973.75;;;17.77;48.65
75072;BME280;63651;55.728;38.022;2023-09-12T02:06:15;99973.75;;;17.77;48.90
75072;BME280;63651;55.728;38.022;2023-09-12T02:11:16;99976.72;;;17.87;48.74
75072;BME280;63651;55.728;38.022;2023-09-12T02:16:17;99977.56;;;17.76;48.94
75072;BME280;63651;55.728;38.022;2023-09-12T02:21:18;99978.88;;;17.74;48.61
75072;BME280;63651;55.728;38.022;2023-09-12T02:26:19;99978.41;;;17.77;48.57
75072;BME280;63651;55.728;38.022;2023-09-12T02:31:20;99985.47;;;17.73;48.86
75072;BME280;63651;55.728;38.022;2023-09-12T02:36:21;99984.88;;;17.71;48.87
75072;BME280;63651;55.728;38.022;2023-09-12T02:41:22;99998.13;;;17.74;48.63
75072;BME280;63651;55.728;38.022;2023-09-12T02:46:24;99996.34;;;17.68;48.73
75072;BME280;63651;55.728;38.022;2023-09-12T02:51:25;99994.88;;;17.65;48.69
75072;BME280;63651;55.728;38.022;2023-09-12T02:56:27;99998.72;;;17.64;48.54
75072;BME280;63651;55.728;38.022;2023-09-12T03:01:28;100005.88;;;17.65;48.71
75072;BME280;63651;55.728;38.022;2023-09-12T03:06:29;99997.41;;;17.67;48.31
75072;BME280;63651;55.728;38.022;2023-09-12T03:11:31;100007.56;;;17.66;48.53
75072;BME280;63651;55.728;38.022;2023-09-12T03:16:32;100003.88;;;17.72;48.11
75072;BME280;63651;55.728;38.022;2023-09-12T03:21:33;100013.91;;;17.67;48.25
75072;BME280;63651;55.728;38.022;2023-09-12T03:26:35;100016.03;;;17.65;48.03
75072;BME280;63651;55.728;38.022;2023-09-12T03:31:36;100005.78;;;17.72;47.79
75072;BME280;63651;55.728;38.022;2023-09-12T03:36:38;100003.03;;;17.72;48.05
75072;BME280;63651;55.728;38.022;2023-09-12T03:41:39;100005.53;;;17.73;47.81
75072;BME280;63651;55.728;38.022;2023-09-12T03:46:40;100004.34;;;17.69;47.78
75072;BME280;63651;55.728;38.022;2023-09-12T03:51:41;100013.78;;;17.73;47.66
75072;BME280;63651;55.728;38.022;2023-09-12T03:56:42;100014.13;;;17.77;47.50
75072;BME280;63651;55.728;38.022;2023-09-12T04:01:44;100011.63;;;17.75;47.59
75072;BME280;63651;55.728;38.022;2023-09-12T04:06:45;100010.91;;;17.80;47.33
75072;BME280;63651;55.728;38.022;2023-09-12T04:11:46;100019.13;;;17.91;47.36
75072;BME280;63651;55.728;38.022;2023-09-12T04:16:47;100017.69;;;17.89;47.33
75072;BME280;63651;55.728;38.022;2023-09-12T04:21:48;100030.22;;;17.97;46.67
75072;BME280;63651;55.728;38.022;2023-09-12T04:26:49;100034.53;;;17.92;46.89
75072;BME280;63651;55.728;38.022;2023-09-12T04:31:50;100041.69;;;18.05;46.79
75072;BME280;63651;55.728;38.022;2023-09-12T04:36:53;100037.63;;;17.96;46.88
75072;BME280;63651;55.728;38.022;2023-09-12T04:41:54;100049.34;;;18.03;46.38
75072;BME280;63651;55.728;38.022;2023-09-12T04:46:55;100050.63;;;18.12;46.40
75072;BME280;63651;55.728;38.022;2023-09-12T04:51:57;100045.63;;;18.09;46.30
75072;BME280;63651;55.728;38.022;2023-09-12T04:56:58;100054.94;;;18.08;46.44
75072;BME280;63651;55.728;38.022;2023-09-12T05:01:59;100054.22;;;18.13;46.72
75072;BME280;63651;55.728;38.022;2023-09-12T05:07:00;100050.75;;;18.17;46.43
75072;BME280;63651;55.728;38.022;2023-09-12T05:12:01;100058.66;;;18.26;46.15
75072;BME280;63651;55.728;38.022;2023-09-12T05:17:02;100053.97;;;18.26;46.19
75072;BME280;63651;55.728;38.022;2023-09-12T05:22:04;100055.91;;;18.26;46.35
75072;BME280;63651;55.728;38.022;2023-09-12T05:27:05;100072.59;;;18.36;45.86
75072;BME280;63651;55.728;38.022;2023-09-12T05:32:06;100066.97;;;18.42;45.68
75072;BME280;63651;55.728;38.022;2023-09-12T05:37:07;100081.31;;;18.44;45.80
75072;BME280;63651;55.728;38.022;2023-09-12T05:42:09;100084.28;;;18.54;45.44
75072;BME280;63651;55.728;38.022;2023-09-12T05:47:10;100085.00;;;18.62;45.70
75072;BME280;63651;55.728;38.022;2023-09-12T05:52:11;100083.69;;;18.52;45.95
75072;BME280;63651;55.728;38.022;2023-09-12T05:57:12;100089.44;;;18.51;45.74
75072;BME280;63651;55.728;38.022;2023-09-12T06:02:13;100097.78;;;18.56;45.75
75072;BME280;63651;55.728;38.022;2023-09-12T06:07:14;100087.03;;;18.54;46.03
75072;BME280;63651;55.728;38.022;2023-09-12T06:12:16;100094.28;;;18.61;45.71
75072;BME280;63651;55.728;38.022;2023-09-12T06:17:17;100082.47;;;18.60;45.71
75072;BME280;63651;55.728;38.022;2023-09-12T06:22:18;100092.50;;;18.66;46.01
75072;BME280;63651;55.728;38.022;2023-09-12T06:27:20;100089.28;;;18.69;45.86
75072;BME280;63651;55.728;38.022;2023-09-12T06:32:21;100077.28;;;18.75;45.84
75072;BME280;63651;55.728;38.022;2023-09-12T06:37:22;100082.63;;;18.82;45.73
75072;BME280;63651;55.728;38.022;2023-09-12T06:42:24;100083.97;;;18.79;45.96
75072;BME280;63651;55.728;38.022;2023-09-12T06:47:25;100085.13;;;18.83;45.91
75072;BME280;63651;55.728;38.022;2023-09-12T06:52:26;100084.91;;;18.85;46.01
75072;BME280;63651;55.728;38.022;2023-09-12T06:57:27;100083.56;;;18.88;45.91
75072;BME280;63651;55.728;38.022;2023-09-12T07:02:29;100094.44;;;18.94;45.79
75072;BME280;63651;55.728;38.022;2023-09-12T07:07:31;100094.53;;;18.99;45.97
75072;BME280;63651;55.728;38.022;2023-09-12T07:12:33;100099.88;;;19.06;45.57
75072;BME280;63651;55.728;38.022;2023-09-12T07:17:35;100098.28;;;19.10;45.59
75072;BME280;63651;55.728;38.022;2023-09-12T07:22:36;100099.13;;;19.10;45.64
75072;BME280;63651;55.728;38.022;2023-09-12T07:27:37;100100.91;;;19.16;45.60
75072;BME280;63651;55.728;38.022;2023-09-12T07:32:38;100096.81;;;19.19;45.53
75072;BME280;63651;55.728;38.022;2023-09-12T07:37:39;100102.41;;;19.24;45.55
75072;BME280;63651;55.728;38.022;2023-09-12T07:42:40;100098.66;;;19.30;45.27
75072;BME280;63651;55.728;38.022;2023-09-12T07:47:41;100092.56;;;19.28;45.47
75072;BME280;63651;55.728;38.022;2023-09-12T07:52:42;100090.72;;;19.34;45.38
75072;BME280;63651;55.728;38.022;2023-09-12T07:57:44;100090.81;;;19.39;45.36
75072;BME280;63651;55.728;38.022;2023-09-12T08:02:45;100091.47;;;19.46;45.11
75072;BME280;63651;55.728;38.022;2023-09-12T08:07:46;100086.91;;;19.52;45.11
75072;BME280;63651;55.728;38.022;2023-09-12T08:12:47;100089.69;;;19.52;45.03
75072;BME280;63651;55.728;38.022;2023-09-12T08:17:48;100087.28;;;19.55;45.08
75072;BME280;63651;55.728;38.022;2023-09-12T08:22:52;100090.97;;;19.61;44.96
75072;BME280;63651;55.728;38.022;2023-09-12T08:27:53;100097.63;;;19.65;44.85
75072;BME280;63651;55.728;38.022;2023-09-12T08:32:55;100087.19;;;19.67;44.85
75072;BME280;63651;55.728;38.022;2023-09-12T08:37:56;100093.63;;;19.72;44.48
75072;BME280;63651;55.728;38.022;2023-09-12T08:42:58;100080.16;;;19.76;44.66
75072;BME280;63651;55.728;38.022;2023-09-12T08:48:00;100084.25;;;19.73;44.69
75072;BME280;63651;55.728;38.022;2023-09-12T08:53:02;100078.66;;;19.68;44.77
75072;BME280;63651;55.728;38.022;2023-09-12T08:58:05;100078.41;;;19.70;44.82
75072;BME280;63651;55.728;38.022;2023-09-12T09:03:06;100074.41;;;19.77;44.52
75072;BME280;63651;55.728;38.022;2023-09-12T09:08:09;100068.13;;;19.82;44.46
75072;BME280;63651;55.728;38.022;2023-09-12T09:13:12;100064.03;;;19.85;44.30
75072;BME280;63651;55.728;38.022;2023-09-12T09:18:13;100064.69;;;19.92;44.33
75072;BME280;63651;55.728;38.022;2023-09-12T09:23:14;100063.91;;;19.96;44.13
75072;BME280;63651;55.728;38.022;2023-09-12T09:28:17;100058.72;;;20.00;44.34
75072;BME280;63651;55.728;38.022;2023-09-12T09:33:19;100060.72;;;20.04;44.16
75072;BME280;63651;55.728;38.022;2023-09-12T09:38:20;100059.13;;;20.08;43.94
75072;BME280;63651;55.728;38.022;2023-09-12T09:43:22;100065.53;;;20.14;43.91
75072;BME280;63651;55.728;38.022;2023-09-12T09:48:26;100068.94;;;20.21;43.80
75072;BME280;63651;55.728;38.022;2023-09-12T09:53:32;100066.81;;;20.28;43.70
75072;BME280;63651;55.728;38.022;2023-09-12T09:58:34;100060.38;;;20.39;43.49
75072;BME280;63651;55.728;38.022;2023-09-12T10:03:36;100061.59;;;20.49;43.05
75072;BME280;63651;55.728;38.022;2023-09-12T10:08:40;100054.19;;;20.54;43.11
75072;BME280;63651;55.728;38.022;2023-09-12T10:13:49;100043.53;;;20.63;42.86
75072;BME280;63651;55.728;38.022;2023-09-12T10:24:32;100048.31;;;20.94;42.21
75072;BME280;63651;55.728;38.022;2023-09-12T10:29:34;100053.94;;;21.04;41.81
75072;BME280;63651;55.728;38.022;2023-09-12T10:34:36;100053.97;;;21.09;42.00
75072;BME280;63651;55.728;38.022;2023-09-12T10:39:39;100047.41;;;21.16;41.87
75072;BME280;63651;55.728;38.022;2023-09-12T10:44:41;100050.13;;;21.11;42.09
75072;BME280;63651;55.728;38.022;2023-09-12T10:49:45;100054.56;;;21.12;42.21
75072;BME280;63651;55.728;38.022;2023-09-12T10:54:46;100049.06;;;21.17;41.64
75072;BME280;63651;55.728;38.022;2023-09-12T11:10:30;100045.16;;;21.13;41.91
75072;BME280;63651;55.728;38.022;2023-09-12T11:15:33;100038.28;;;21.15;41.58
75072;BME280;63651;55.728;38.022;2023-09-12T11:21:00;100046.31;;;21.17;41.88
75072;BME280;63651;55.728;38.022;2023-09-12T11:26:07;100046.03;;;21.18;41.63
75072;BME280;63651;55.728;38.022;2023-09-12T11:31:11;100039.59;;;21.07;42.15
75072;BME280;63651;55.728;38.022;2023-09-12T11:36:18;100041.75;;;21.00;42.14
75072;BME280;63651;55.728;38.022;2023-09-12T11:41:38;100036.47;;;20.99;41.98
75072;BME280;63651;55.728;38.022;2023-09-12T11:46:41;100038.94;;;20.95;42.41
75072;BME280;63651;55.728;38.022;2023-09-12T11:51:50;100022.53;;;20.84;42.22
75072;BME280;63651;55.728;38.022;2023-09-12T11:56:52;100035.81;;;20.87;42.19
75072;BME280;63651;55.728;38.022;2023-09-12T12:02:00;100024.19;;;20.85;42.40
75072;BME280;63651;55.728;38.022;2023-09-12T12:07:03;100033.03;;;20.87;42.11
75072;BME280;63651;55.728;38.022;2023-09-12T12:12:11;100029.50;;;20.91;42.03
75072;BME280;63651;55.728;38.022;2023-09-12T12:17:12;100022.34;;;20.95;41.94
75072;BME280;63651;55.728;38.022;2023-09-12T12:22:13;100020.47;;;21.01;41.78
75072;BME280;63651;55.728;38.022;2023-09-12T12:27:15;100028.50;;;21.02;42.25
75072;BME280;63651;55.728;38.022;2023-09-12T12:32:16;100025.78;;;21.07;41.95
75072;BME280;63651;55.728;38.022;2023-09-12T12:37:17;100014.50;;;21.14;41.41
75072;BME280;63651;55.728;38.022;2023-09-12T12:42:19;100021.13;;;21.13;41.72
75072;BME280;63651;55.728;38.022;2023-09-12T12:47:25;100007.00;;;21.09;41.49
75072;BME280;63651;55.728;38.022;2023-09-12T12:52:26;99993.47;;;21.08;41.64
75072;BME280;63651;55.728;38.022;2023-09-12T12:57:29;100003.19;;;21.16;41.47
75072;BME280;63651;55.728;38.022;2023-09-12T13:02:32;100001.53;;;21.15;41.36
75072;BME280;63651;55.728;38.022;2023-09-12T13:07:34;100002.94;;;21.17;41.46
75072;BME280;63651;55.728;38.022;2023-09-12T13:12:36;100002.38;;;21.15;41.65
75072;BME280;63651;55.728;38.022;2023-09-12T13:17:38;100007.00;;;21.09;41.44
75072;BME280;63651;55.728;38.022;2023-09-12T13:22:39;100004.25;;;21.09;41.84
75072;BME280;63651;55.728;38.022;2023-09-12T13:27:41;100013.09;;;21.12;41.21
75072;BME280;63651;55.728;38.022;2023-09-12T13:32:42;100014.56;;;21.19;41.17
75072;BME280;63651;55.728;38.022;2023-09-12T13:37:43;100016.19;;;21.15;41.51
75072;BME280;63651;55.728;38.022;2023-09-12T13:42:44;100015.03;;;21.11;41.47
75072;BME280;63651;55.728;38.022;2023-09-12T13:47:45;100015.34;;;21.15;41.16
75072;BME280;63651;55.728;38.022;2023-09-12T13:52:46;100019.16;;;21.08;41.30
75072;BME280;63651;55.728;38.022;2023-09-12T13:57:47;100023.84;;;21.08;41.47
75072;BME280;63651;55.728;38.022;2023-09-12T14:02:48;100022.41;;;21.00;41.55
75072;BME280;63651;55.728;38.022;2023-09-12T14:07:50;100019.13;;;21.03;41.51
75072;BME280;63651;55.728;38.022;2023-09-12T14:12:51;100017.19;;;21.04;41.02
75072;BME280;63651;55.728;38.022;2023-09-12T14:17:52;100012.50;;;21.04;41.63
75072;BME280;63651;55.728;38.022;2023-09-12T14:22:54;100011.09;;;21.02;41.22
75072;BME280;63651;55.728;38.022;2023-09-12T14:27:55;100018.03;;;21.04;41.58
75072;BME280;63651;55.728;38.022;2023-09-12T14:32:56;100026.56;;;21.03;41.42
75072;BME280;63651;55.728;38.022;2023-09-12T14:37:57;100028.75;;;21.01;41.17
75072;BME280;63651;55.728;38.022;2023-09-12T14:42:59;100029.03;;;20.99;41.70
75072;BME280;63651;55.728;38.022;2023-09-12T14:48:00;100023.75;;;20.98;41.33
75072;BME280;63651;55.728;38.022;2023-09-12T14:53:01;100024.03;;;20.96;41.38
75072;BME280;63651;55.728;38.022;2023-09-12T14:58:03;100019.34;;;20.97;41.26
75072;BME280;63651;55.728;38.022;2023-09-12T15:03:04;100019.38;;;21.02;41.10
75072;BME280;63651;55.728;38.022;2023-09-12T15:08:05;100022.19;;;21.07;41.33
75072;BME280;63651;55.728;38.022;2023-09-12T15:13:07;100029.63;;;21.06;41.03
75072;BME280;63651;55.728;38.022;2023-09-12T15:18:08;100027.72;;;21.07;40.92
75072;BME280;63651;55.728;38.022;2023-09-12T15:23:09;100037.66;;;21.08;41.44
75072;BME280;63651;55.728;38.022;2023-09-12T15:28:10;100042.09;;;21.09;41.56
75072;BME280;63651;55.728;38.022;2023-09-12T15:33:12;100047.56;;;21.04;41.44
75072;BME280;63651;55.728;38.022;2023-09-12T15:38:13;100041.16;;;20.98;41.55
75072;BME280;63651;55.728;38.022;2023-09-12T15:43:14;100048.25;;;20.89;42.04
75072;BME280;63651;55.728;38.022;2023-09-12T15:48:15;100055.56;;;20.78;41.90
75072;BME280;63651;55.728;38.022;2023-09-12T15:53:16;100062.41;;;20.71;42.09
75072;BME280;63651;55.728;38.022;2023-09-12T15:58:17;100057.03;;;20.59;42.18
75072;BME280;63651;55.728;38.022;2023-09-12T16:03:18;100067.69;;;20.51;42.47
75072;BME280;63651;55.728;38.022;2023-09-12T16:08:20;100068.13;;;20.42;42.54
75072;BME280;63651;55.728;38.022;2023-09-12T16:13:21;100073.19;;;20.29;42.87
75072;BME280;63651;55.728;38.022;2023-09-12T16:18:22;100083.56;;;20.22;43.12
75072;BME280;63651;55.728;38.022;2023-09-12T16:23:26;100076.25;;;20.10;43.29
75072;BME280;63651;55.728;38.022;2023-09-12T16:28:32;100079.19;;;20.04;43.33
75072;BME280;63651;55.728;38.022;2023-09-12T16:33:33;100078.63;;;20.02;43.47
75072;BME280;63651;55.728;38.022;2023-09-12T16:38:34;100081.81;;;19.94;43.99
75072;BME280;63651;55.728;38.022;2023-09-12T16:43:35;100079.22;;;19.87;43.84
75072;BME280;63651;55.728;38.022;2023-09-12T16:48:37;100082.75;;;19.83;43.92
75072;BME280;63651;55.728;38.022;2023-09-12T16:53:39;100071.56;;;19.72;44.07
75072;BME280;63651;55.728;38.022;2023-09-12T16:58:41;100077.91;;;19.73;44.16
75072;BME280;63651;55.728;38.022;2023-09-12T17:03:43;100084.50;;;19.72;44.15
75072;BME280;63651;55.728;38.022;2023-09-12T17:08:44;100085.53;;;19.66;44.17
75072;BME280;63651;55.728;38.022;2023-09-12T17:13:45;100085.19;;;19.62;44.22
75072;BME280;63651;55.728;38.022;2023-09-12T17:18:47;100092.28;;;19.58;44.51
75072;BME280;63651;55.728;38.022;2023-09-12T17:23:48;100085.94;;;19.58;44.22
75072;BME280;63651;55.728;38.022;2023-09-12T17:28:49;100089.31;;;19.48;44.53
75072;BME280;63651;55.728;38.022;2023-09-12T17:33:50;100091.47;;;19.46;44.70
75072;BME280;63651;55.728;38.022;2023-09-12T17:38:51;100080.38;;;19.41;44.71
75072;BME280;63651;55.728;38.022;2023-09-12T17:43:52;100095.25;;;19.40;44.93
75072;BME280;63651;55.728;38.022;2023-09-12T17:48:53;100093.06;;;19.42;44.70
75072;BME280;63651;55.728;38.022;2023-09-12T17:53:54;100087.72;;;19.35;44.96
75072;BME280;63651;55.728;38.022;2023-09-12T17:58:56;100090.22;;;19.37;44.78
75072;BME280;63651;55.728;38.022;2023-09-12T18:03:57;100086.31;;;19.33;45.27
75072;BME280;63651;55.728;38.022;2023-09-12T18:09:00;100084.47;;;19.22;45.21
75072;BME280;63651;55.728;38.022;2023-09-12T18:14:02;100096.41;;;19.27;45.21
75072;BME280;63651;55.728;38.022;2023-09-12T18:19:03;100097.81;;;19.30;45.13
75072;BME280;63651;55.728;38.022;2023-09-12T18:24:04;100096.31;;;19.22;45.31
75072;BME280;63651;55.728;38.022;2023-09-12T18:29:06;100090.47;;;19.18;45.45
75072;BME280;63651;55.728;38.022;2023-09-12T18:34:08;100092.88;;;19.15;45.48
75072;BME280;63651;55.728;38.022;2023-09-12T18:39:10;100095.13;;;19.18;45.53
75072;BME280;63651;55.728;38.022;2023-09-12T18:44:12;100102.47;;;19.12;45.73
75072;BME280;63651;55.728;38.022;2023-09-12T18:49:13;100095.63;;;19.15;45.65
75072;BME280;63651;55.728;38.022;2023-09-12T18:54:18;100093.28;;;19.07;45.74
75072;BME280;63651;55.728;38.022;2023-09-12T18:59:19;100097.81;;;19.13;45.78
75072;BME280;63651;55.728;38.022;2023-09-12T19:04:28;100102.38;;;19.07;45.81
75072;BME280;63651;55.728;38.022;2023-09-12T19:09:32;100106.47;;;19.05;45.97
75072;BME280;63651;55.728;38.022;2023-09-12T19:14:33;100111.13;;;19.04;45.91
75072;BME280;63651;55.728;38.022;2023-09-12T19:19:34;100107.22;;;19.00;45.95
75072;BME280;63651;55.728;38.022;2023-09-12T19:24:35;100116.88;;;19.03;45.92
75072;BME280;63651;55.728;38.022;2023-09-12T19:29:47;100101.75;;;18.89;46.21
75072;BME280;63651;55.728;38.022;2023-09-12T19:34:48;100113.13;;;18.92;46.16
75072;BME280;63651;55.728;38.022;2023-09-12T19:39:49;100118.19;;;18.83;46.41
75072;BME280;63651;55.728;38.022;2023-09-12T19:44:50;100102.06;;;18.75;46.34
75072;BME280;63651;55.728;38.022;2023-09-12T19:49:52;100113.13;;;18.92;46.09
75072;BME280;63651;55.728;38.022;2023-09-12T19:54:53;100109.63;;;18.97;46.31
75072;BME280;63651;55.728;38.022;2023-09-12T19:59:54;100117.19;;;18.90;46.17
75072;BME280;63651;55.728;38.022;2023-09-12T20:04:55;100119.34;;;18.88;46.35
75072;BME280;63651;55.728;38.022;2023-09-12T20:09:56;100125.22;;;18.91;46.40
75072;BME280;63651;55.728;38.022;2023-09-12T20:14:57;100122.00;;;18.82;46.57
75072;BME280;63651;55.728;38.022;2023-09-12T20:19:59;100128.44;;;18.88;46.47
75072;BME280;63651;55.728;38.022;2023-09-12T20:25:01;100121.41;;;18.80;46.53
75072;BME280;63651;55.728;38.022;2023-09-12T20:30:02;100128.44;;;18.88;46.34
75072;BME280;63651;55.728;38.022;2023-09-12T20:35:03;100116.84;;;18.86;46.67
75072;BME280;63651;55.728;38.022;2023-09-12T20:40:06;100124.06;;;18.75;46.79
75072;BME280;63651;55.728;38.022;2023-09-12T20:45:08;100123.81;;;18.77;46.72
75072;BME280;63651;55.728;38.022;2023-09-12T20:50:09;100120.38;;;18.70;46.78
75072;BME280;63651;55.728;38.022;2023-09-12T20:55:11;100130.06;;;18.72;46.97
75072;BME280;63651;55.728;38.022;2023-09-12T21:00:13;100137.97;;;18.69;47.10
75072;BME280;63651;55.728;38.022;2023-09-12T21:05:14;100140.97;;;18.67;47.08
75072;BME280;63651;55.728;38.022;2023-09-12T21:10:18;100139.16;;;18.73;46.87
75072;BME280;63651;55.728;38.022;2023-09-12T21:15:19;100139.66;;;18.70;46.82
75072;BME280;63651;55.728;38.022;2023-09-12T21:20:21;100141.56;;;18.69;47.12
75072;BME280;63651;55.728;38.022;2023-09-12T21:25:22;100147.06;;;18.69;47.03
75072;BME280;63651;55.728;38.022;2023-09-12T21:30:23;100148.03;;;18.63;47.11
75072;BME280;63651;55.728;38.022;2023-09-12T21:35:24;100153.91;;;18.67;46.87
75072;BME280;63651;55.728;38.022;2023-09-12T21:40:25;100146.47;;;18.55;47.12
75072;BME280;63651;55.728;38.022;2023-09-12T21:45:27;100144.31;;;18.58;47.18
75072;BME280;63651;55.728;38.022;2023-09-12T21:50:28;100153.53;;;18.63;47.38
75072;BME280;63651;55.728;38.022;2023-09-12T21:55:30;100154.25;;;18.59;47.33
75072;BME280;63651;55.728;38.022;2023-09-12T22:00:31;100149.72;;;18.52;47.27
75072;BME280;63651;55.728;38.022;2023-09-12T22:05:35;100156.53;;;18.50;47.70
75072;BME280;63651;55.728;38.022;2023-09-12T22:10:37;100157.25;;;18.57;47.37
75072;BME280;63651;55.728;38.022;2023-09-12T22:15:39;100165.38;;;18.52;47.28
75072;BME280;63651;55.728;38.022;2023-09-12T22:20:42;100161.78;;;18.51;47.56
75072;BME280;63651;55.728;38.022;2023-09-12T22:25:43;100166.47;;;18.51;47.59
75072;BME280;63651;55.728;38.022;2023-09-12T22:30:44;100161.19;;;18.49;47.65
75072;BME280;63651;55.728;38.022;2023-09-12T22:35:52;100167.31;;;18.51;47.47
75072;BME280;63651;55.728;38.022;2023-09-12T22:40:55;100167.19;;;18.46;47.86
75072;BME280;63651;55.728;38.022;2023-09-12T22:45:56;100166.72;;;18.49;47.67
75072;BME280;63651;55.728;38.022;2023-09-12T22:50:57;100164.56;;;18.40;47.72
75072;BME280;63651;55.728;38.022;2023-09-12T22:55:58;100175.44;;;18.46;47.77
75072;BME280;63651;55.728;38.022;2023-09-12T23:00:59;100168.75;;;18.42;47.73
75072;BME280;63651;55.728;38.022;2023-09-12T23:06:02;100162.66;;;18.40;47.69
75072;BME280;63651;55.728;38.022;2023-09-12T23:11:03;100169.34;;;18.44;47.98
75072;BME280;63651;55.728;38.022;2023-09-12T23:16:04;100159.41;;;18.43;47.85
75072;BME280;63651;55.728;38.022;2023-09-12T23:21:05;100170.66;;;18.42;47.71
75072;BME280;63651;55.728;38.022;2023-09-12T23:26:06;100153.31;;;18.41;48.06
75072;BME280;63651;55.728;38.022;2023-09-12T23:31:07;100158.47;;;18.38;48.02
75072;BME280;63651;55.728;38.022;2023-09-12T23:36:09;100150.72;;;18.35;47.97
75072;BME280;63651;55.728;38.022;2023-09-12T23:41:10;100158.72;;;18.36;47.89
75072;BME280;63651;55.728;38.022;2023-09-12T23:46:11;100158.38;;;18.33;47.96
75072;BME280;63651;55.728;38.022;2023-09-12T23:51:13;100160.75;;;18.29;48.21
75072;BME280;63651;55.728;38.022;2023-09-12T23:56:16;100158.38;;;18.33;47.95
